Terminal Aerodrome Forecast
Issued by NWS

Home | Current Version | Previous Version | Text Only | Print | Product List | Glossary On
Versions: 1 2 3 4 5 6 7 8 9 10 11 12
926
FTUS46 KSEW 232320
TAFBLI
TAF
KBLI 232320Z 2400/2424 30005KT P6SM FEW200
     FM240600 02003KT P6SM FEW200
     FM241200 VRB03KT P6SM BKN015
     FM241800 VRB04KT P6SM SCT025=

USA.gov is the U.S. government's official web portal to all federal, state and local government web resources and services.